sensor_id;sensor_type;location;lat;lon;timestamp;P1;P2;P0
53698;PMS7003;39591;53.952;27.612;2022-12-07T00:04:54;15.3;12;8.6
53698;PMS7003;39591;53.952;27.612;2022-12-07T00:09:28;12.1;9.1;6.8
53698;PMS7003;39591;53.952;27.612;2022-12-07T00:14:42;15.6;11.4;7.7
53698;PMS7003;39591;53.952;27.612;2022-12-07T00:19:20;13.1;10.4;8.2
53698;PMS7003;39591;53.952;27.612;2022-12-07T00:24:52;11.7;9.2;7.4
53698;PMS7003;39591;53.952;27.612;2022-12-07T00:29:30;15;11.8;9
53698;PMS7003;39591;53.952;27.612;2022-12-07T00:34:40;13.5;11.3;8.8
53698;PMS7003;39591;53.952;27.612;2022-12-07T00:39:26;13.7;11.5;8.5
53698;PMS7003;39591;53.952;27.612;2022-12-07T00:44:28;13.2;10.4;7.9
53698;PMS7003;39591;53.952;27.612;2022-12-07T00:49:42;12.8;10.4;7.4
53698;PMS7003;39591;53.952;27.612;2022-12-07T00:54:39;13;10.5;8
53698;PMS7003;39591;53.952;27.612;2022-12-07T00:59:42;13.9;11.5;8.2
53698;PMS7003;39591;53.952;27.612;2022-12-07T01:04:40;14.5;11.1;7.8
53698;PMS7003;39591;53.952;27.612;2022-12-07T01:09:12;13.2;10.6;8
53698;PMS7003;39591;53.952;27.612;2022-12-07T01:14:56;13.9;10.9;8.2
53698;PMS7003;39591;53.952;27.612;2022-12-07T01:19:56;12.8;10.5;8.2
53698;PMS7003;39591;53.952;27.612;2022-12-07T01:24:30;14.2;9.9;7.6
53698;PMS7003;39591;53.952;27.612;2022-12-07T01:29:44;10.7;8.5;6.1
53698;PMS7003;39591;53.952;27.612;2022-12-07T01:34:22;15.2;11.9;8.6
53698;PMS7003;39591;53.952;27.612;2022-12-07T01:39:54;14.6;11.1;8.4
53698;PMS7003;39591;53.952;27.612;2022-12-07T01:45:15;13.2;10.7;8.2
53698;PMS7003;39591;53.952;27.612;2022-12-07T01:49:24;13.4;10.8;8.2
53698;PMS7003;39591;53.952;27.612;2022-12-07T01:54:22;12;9.3;6.5
53698;PMS7003;39591;53.952;27.612;2022-12-07T01:59:34;11.5;10;7.8
53698;PMS7003;39591;53.952;27.612;2022-12-07T02:04:36;11.8;9.3;7
53698;PMS7003;39591;53.952;27.612;2022-12-07T02:09:36;10.5;7.8;4.8
53698;PMS7003;39591;53.952;27.612;2022-12-07T02:14:44;13;10.5;8.7
53698;PMS7003;39591;53.952;27.612;2022-12-07T02:19:49;11.9;9.8;7.6
53698;PMS7003;39591;53.952;27.612;2022-12-07T02:24:14;12.7;10.7;7.5
53698;PMS7003;39591;53.952;27.612;2022-12-07T02:29:55;14.4;11.9;9.1
53698;PMS7003;39591;53.952;27.612;2022-12-07T02:34:58;14.7;11.6;8.5
53698;PMS7003;39591;53.952;27.612;2022-12-07T02:39:31;16.1;12.5;9.6
53698;PMS7003;39591;53.952;27.612;2022-12-07T02:44:42;13.6;10.4;7.4
53698;PMS7003;39591;53.952;27.612;2022-12-07T02:49:12;14.4;11.9;8.4
53698;PMS7003;39591;53.952;27.612;2022-12-07T02:54:54;13.3;9.7;7
53698;PMS7003;39591;53.952;27.612;2022-12-07T02:59:36;14.6;12.4;8.5
53698;PMS7003;39591;53.952;27.612;2022-12-07T03:04:45;15.8;11.7;9
53698;PMS7003;39591;53.952;27.612;2022-12-07T03:09:33;15.6;11.9;8.8
53698;PMS7003;39591;53.952;27.612;2022-12-07T03:14:13;13.6;10.4;7.1
53698;PMS7003;39591;53.952;27.612;2022-12-07T03:19:42;14.8;11;8.2
53698;PMS7003;39591;53.952;27.612;2022-12-07T03:24:43;15.3;12.2;8.6
53698;PMS7003;39591;53.952;27.612;2022-12-07T03:29:25;14;10.6;7.8
53698;PMS7003;39591;53.952;27.612;2022-12-07T03:34:44;13.2;9.6;7.1
53698;PMS7003;39591;53.952;27.612;2022-12-07T03:39:14;11;8.2;6
53698;PMS7003;39591;53.952;27.612;2022-12-07T03:44:56;13.7;11.1;8
53698;PMS7003;39591;53.952;27.612;2022-12-07T03:49:57;13.1;10.8;8
53698;PMS7003;39591;53.952;27.612;2022-12-07T03:54:21;13.9;10;7.9
53698;PMS7003;39591;53.952;27.612;2022-12-07T03:59:36;11.8;9.2;7.3
53698;PMS7003;39591;53.952;27.612;2022-12-07T04:04:24;10.6;8.6;6.4
53698;PMS7003;39591;53.952;27.612;2022-12-07T04:09:34;12.1;9.1;6.9
53698;PMS7003;39591;53.952;27.612;2022-12-07T04:14:56;11.8;9.3;6.7
53698;PMS7003;39591;53.952;27.612;2022-12-07T04:19:33;14.5;12;9.5
53698;PMS7003;39591;53.952;27.612;2022-12-07T04:24:58;15.1;11.9;8.6
53698;PMS7003;39591;53.952;27.612;2022-12-07T04:29:32;12.6;10.1;7.4
53698;PMS7003;39591;53.952;27.612;2022-12-07T04:34:42;15.7;12.6;9.5
53698;PMS7003;39591;53.952;27.612;2022-12-07T04:39:52;17;11.9;9.1
53698;PMS7003;39591;53.952;27.612;2022-12-07T04:44:56;11;8.7;7
53698;PMS7003;39591;53.952;27.612;2022-12-07T04:49:56;11.8;9.5;6.8
53698;PMS7003;39591;53.952;27.612;2022-12-07T04:54:22;12.1;10.1;8.3
53698;PMS7003;39591;53.952;27.612;2022-12-07T04:59:46;14.3;10.5;8
53698;PMS7003;39591;53.952;27.612;2022-12-07T05:04:36;13.3;10.7;8.1
53698;PMS7003;39591;53.952;27.612;2022-12-07T05:09:46;14.8;11.6;9
53698;PMS7003;39591;53.952;27.612;2022-12-07T05:14:30;17.5;13.4;9.8
53698;PMS7003;39591;53.952;27.612;2022-12-07T05:19:12;15.4;11.8;8.7
53698;PMS7003;39591;53.952;27.612;2022-12-07T05:24:32;14.5;12.5;9
53698;PMS7003;39591;53.952;27.612;2022-12-07T05:29:56;14.2;11.1;8.3
53698;PMS7003;39591;53.952;27.612;2022-12-07T05:34:32;12.3;8.9;6.9
53698;PMS7003;39591;53.952;27.612;2022-12-07T05:39:54;14.5;11.2;8.3
53698;PMS7003;39591;53.952;27.612;2022-12-07T05:44:24;13.7;10.5;8.4
53698;PMS7003;39591;53.952;27.612;2022-12-07T05:49:44;13.2;11.3;8.5
53698;PMS7003;39591;53.952;27.612;2022-12-07T05:54:46;13.9;11.8;8.7
53698;PMS7003;39591;53.952;27.612;2022-12-07T05:59:54;14.2;11.2;8.7
53698;PMS7003;39591;53.952;27.612;2022-12-07T06:04:52;12.6;11.1;8.1
53698;PMS7003;39591;53.952;27.612;2022-12-07T06:09:22;14.4;12.3;9.1
53698;PMS7003;39591;53.952;27.612;2022-12-07T06:14:40;13.1;10.5;8.1
53698;PMS7003;39591;53.952;27.612;2022-12-07T06:19:36;13.6;10.5;7.2
53698;PMS7003;39591;53.952;27.612;2022-12-07T06:24:48;13.7;10.5;8.4
53698;PMS7003;39591;53.952;27.612;2022-12-07T06:29:34;16.4;13.3;9.7
53698;PMS7003;39591;53.952;27.612;2022-12-07T06:34:13;13.4;11.2;8.5
53698;PMS7003;39591;53.952;27.612;2022-12-07T06:39:36;14.9;12.1;10
53698;PMS7003;39591;53.952;27.612;2022-12-07T06:44:56;15.8;13.4;10.2
53698;PMS7003;39591;53.952;27.612;2022-12-07T06:49:32;15.5;13.4;10.1
53698;PMS7003;39591;53.952;27.612;2022-12-07T06:54:54;15.2;12.9;9.6
53698;PMS7003;39591;53.952;27.612;2022-12-07T06:59:20;17.7;13.3;9.4
53698;PMS7003;39591;53.952;27.612;2022-12-07T07:04:42;17.8;14.5;10.6
53698;PMS7003;39591;53.952;27.612;2022-12-07T07:09:44;15;12.6;9.3
53698;PMS7003;39591;53.952;27.612;2022-12-07T07:14:54;14.8;12.7;9.1
53698;PMS7003;39591;53.952;27.612;2022-12-07T07:19:54;15.3;12.1;8.8
53698;PMS7003;39591;53.952;27.612;2022-12-07T07:24:30;12.4;11;8.8
53698;PMS7003;39591;53.952;27.612;2022-12-07T07:29:56;15;11.7;8.5
53698;PMS7003;39591;53.952;27.612;2022-12-07T07:34:36;16.6;13.2;9.8
53698;PMS7003;39591;53.952;27.612;2022-12-07T07:39:34;18.4;14.8;11
53698;PMS7003;39591;53.952;27.612;2022-12-07T07:44:30;19.2;14.6;10.8
53698;PMS7003;39591;53.952;27.612;2022-12-07T07:49:22;17.1;14;10.3
53698;PMS7003;39591;53.952;27.612;2022-12-07T07:54:32;15.5;12;8.6
53698;PMS7003;39591;53.952;27.612;2022-12-07T07:59:56;18;15;11.4
53698;PMS7003;39591;53.952;27.612;2022-12-07T08:04:35;18.3;13.5;9.9
53698;PMS7003;39591;53.952;27.612;2022-12-07T08:09:54;17.6;13.6;9.6
53698;PMS7003;39591;53.952;27.612;2022-12-07T08:19:42;15.6;12.9;9.9
53698;PMS7003;39591;53.952;27.612;2022-12-07T08:24:46;18;13.9;10.3
53698;PMS7003;39591;53.952;27.612;2022-12-07T08:29:56;13.7;10.6;7.6
53698;PMS7003;39591;53.952;27.612;2022-12-07T08:34:44;13.9;11.4;8.9
53698;PMS7003;39591;53.952;27.612;2022-12-07T08:39:22;14.5;11;8.3
53698;PMS7003;39591;53.952;27.612;2022-12-07T08:44:46;14.1;11.2;7.9
53698;PMS7003;39591;53.952;27.612;2022-12-07T08:49:13;12.7;10.7;8.2
53698;PMS7003;39591;53.952;27.612;2022-12-07T08:54:48;13.7;10.7;8.3
53698;PMS7003;39591;53.952;27.612;2022-12-07T08:59:32;12.4;10;7.8
53698;PMS7003;39591;53.952;27.612;2022-12-07T09:04:13;13.8;10;7.7
53698;PMS7003;39591;53.952;27.612;2022-12-07T09:09:32;14;10.1;7.8
53698;PMS7003;39591;53.952;27.612;2022-12-07T09:14:54;14.8;10;7.9
53698;PMS7003;39591;53.952;27.612;2022-12-07T09:19:42;13.1;10.1;7.6
53698;PMS7003;39591;53.952;27.612;2022-12-07T09:24:56;14.1;11.1;8.2
53698;PMS7003;39591;53.952;27.612;2022-12-07T09:29:22;13.7;11.6;8.6
53698;PMS7003;39591;53.952;27.612;2022-12-07T09:34:42;11.7;9.9;7.6
53698;PMS7003;39591;53.952;27.612;2022-12-07T09:39:54;11.7;9.5;7.4
53698;PMS7003;39591;53.952;27.612;2022-12-07T09:44:42;13.2;9.6;8.1
53698;PMS7003;39591;53.952;27.612;2022-12-07T09:49:55;13.5;11.1;8.5
53698;PMS7003;39591;53.952;27.612;2022-12-07T09:54:22;14.5;11.4;8.8
53698;PMS7003;39591;53.952;27.612;2022-12-07T09:59:44;11.8;9;6.8
53698;PMS7003;39591;53.952;27.612;2022-12-07T10:04:13;11.5;9.6;7.5
53698;PMS7003;39591;53.952;27.612;2022-12-07T10:09:46;13.2;10.8;7.8
53698;PMS7003;39591;53.952;27.612;2022-12-07T10:14:31;12.9;10.5;8.3
53698;PMS7003;39591;53.952;27.612;2022-12-07T10:19:23;13.2;10.2;7.5
53698;PMS7003;39591;53.952;27.612;2022-12-07T10:24:34;13.9;11.6;8.4
53698;PMS7003;39591;53.952;27.612;2022-12-07T10:29:58;11.7;9.1;6.4
53698;PMS7003;39591;53.952;27.612;2022-12-07T10:34:37;13;10.4;7.8
53698;PMS7003;39591;53.952;27.612;2022-12-07T10:39:58;10.9;9.4;6.7
53698;PMS7003;39591;53.952;27.612;2022-12-07T10:44:23;9.1;6.8;4.8
53698;PMS7003;39591;53.952;27.612;2022-12-07T10:49:41;12.2;9.3;7.1
53698;PMS7003;39591;53.952;27.612;2022-12-07T10:54:25;12.3;8.8;6.8
53698;PMS7003;39591;53.952;27.612;2022-12-07T11:00:00;12.2;10.3;7.8
53698;PMS7003;39591;53.952;27.612;2022-12-07T11:04:59;11.7;9.9;7.9
53698;PMS7003;39591;53.952;27.612;2022-12-07T11:09:21;13.3;11.7;9.8
53698;PMS7003;39591;53.952;27.612;2022-12-07T11:14:47;14.5;11.4;8.4
53698;PMS7003;39591;53.952;27.612;2022-12-07T11:19:40;12.2;9.3;7.2
53698;PMS7003;39591;53.952;27.612;2022-12-07T11:24:48;13.9;11.4;8.8
53698;PMS7003;39591;53.952;27.612;2022-12-07T11:29:43;14.9;11.6;9.1
53698;PMS7003;39591;53.952;27.612;2022-12-07T11:34:15;12.5;10.4;8.3
53698;PMS7003;39591;53.952;27.612;2022-12-07T11:39:16;14.3;9.9;6.7
53698;PMS7003;39591;53.952;27.612;2022-12-07T11:44:57;18.7;15.3;11.8
53698;PMS7003;39591;53.952;27.612;2022-12-07T11:49:37;12.3;9.4;6.9
53698;PMS7003;39591;53.952;27.612;2022-12-07T11:54:56;14.4;11.9;8.7
53698;PMS7003;39591;53.952;27.612;2022-12-07T11:59:13;12.5;9.5;7.5
53698;PMS7003;39591;53.952;27.612;2022-12-07T12:04:46;13.4;11;8.5
53698;PMS7003;39591;53.952;27.612;2022-12-07T12:09:46;12.6;10.5;8.7
53698;PMS7003;39591;53.952;27.612;2022-12-07T12:15:01;13.3;11;8.8
53698;PMS7003;39591;53.952;27.612;2022-12-07T12:19:58;14.2;11.5;8.8
53698;PMS7003;39591;53.952;27.612;2022-12-07T12:24:31;12.4;10.1;7.5
53698;PMS7003;39591;53.952;27.612;2022-12-07T12:29:50;14.1;11.4;8.6
53698;PMS7003;39591;53.952;27.612;2022-12-07T12:34:38;13.5;10.8;8.2
53698;PMS7003;39591;53.952;27.612;2022-12-07T12:40:12;13.5;9.7;8
53698;PMS7003;39591;53.952;27.612;2022-12-07T12:45:04;12.6;9.9;7.4
53698;PMS7003;39591;53.952;27.612;2022-12-07T12:49:38;13.6;11.3;8.8
53698;PMS7003;39591;53.952;27.612;2022-12-07T12:54:36;13.8;11.5;8.6
53698;PMS7003;39591;53.952;27.612;2022-12-07T12:59:59;14.1;11.6;8.7
53698;PMS7003;39591;53.952;27.612;2022-12-07T13:05:14;12.4;10.7;8.3
53698;PMS7003;39591;53.952;27.612;2022-12-07T13:09:59;14.2;10.7;8.4
53698;PMS7003;39591;53.952;27.612;2022-12-07T13:15:31;12.4;10.8;8.4
53698;PMS7003;39591;53.952;27.612;2022-12-07T13:19:53;13.1;10.7;8.6
53698;PMS7003;39591;53.952;27.612;2022-12-07T13:24:12;13;10.3;8
53698;PMS7003;39591;53.952;27.612;2022-12-07T13:29:43;12.5;9.8;7.6
53698;PMS7003;39591;53.952;27.612;2022-12-07T13:34:56;10.8;9.1;6.9
53698;PMS7003;39591;53.952;27.612;2022-12-07T13:39:23;13.8;11.3;8.6
53698;PMS7003;39591;53.952;27.612;2022-12-07T13:44:59;10.5;8;6.3
53698;PMS7003;39591;53.952;27.612;2022-12-07T13:49:47;10.4;9.1;7.1
53698;PMS7003;39591;53.952;27.612;2022-12-07T13:54:54;13.7;11;8
53698;PMS7003;39591;53.952;27.612;2022-12-07T13:59:30;12.9;10.2;7.7
53698;PMS7003;39591;53.952;27.612;2022-12-07T14:04:32;14.6;11.5;9.3
53698;PMS7003;39591;53.952;27.612;2022-12-07T14:09:53;13;11.4;9
53698;PMS7003;39591;53.952;27.612;2022-12-07T14:14:55;13.9;10.4;7.9
53698;PMS7003;39591;53.952;27.612;2022-12-07T14:19:41;15.2;11.2;8.1
53698;PMS7003;39591;53.952;27.612;2022-12-07T14:25:01;12.6;10.3;8
53698;PMS7003;39591;53.952;27.612;2022-12-07T14:29:29;12.5;10.8;8
53698;PMS7003;39591;53.952;27.612;2022-12-07T14:34:52;13.9;9.8;7.6
53698;PMS7003;39591;53.952;27.612;2022-12-07T14:39:56;13.4;9.9;7.9
53698;PMS7003;39591;53.952;27.612;2022-12-07T14:44:43;11.5;9.4;6.8
53698;PMS7003;39591;53.952;27.612;2022-12-07T14:49:56;13.7;11.2;8.5
53698;PMS7003;39591;53.952;27.612;2022-12-07T14:54:22;13.4;11;8.3
53698;PMS7003;39591;53.952;27.612;2022-12-07T14:59:56;11.8;9.4;6.8
53698;PMS7003;39591;53.952;27.612;2022-12-07T15:04:49;12.6;10.2;8.1
53698;PMS7003;39591;53.952;27.612;2022-12-07T15:09:47;12.5;9.5;7.5
53698;PMS7003;39591;53.952;27.612;2022-12-07T15:14:31;10.3;8.2;6.1
53698;PMS7003;39591;53.952;27.612;2022-12-07T15:19:25;10.9;8.8;7.1
53698;PMS7003;39591;53.952;27.612;2022-12-07T15:24:34;11.3;9.1;6.9
53698;PMS7003;39591;53.952;27.612;2022-12-07T15:29:58;9.6;7.5;5.8
53698;PMS7003;39591;53.952;27.612;2022-12-07T15:34:34;8.6;6.1;4.7
53698;PMS7003;39591;53.952;27.612;2022-12-07T15:39:56;10.4;8.2;6.6
53698;PMS7003;39591;53.952;27.612;2022-12-07T15:44:22;11.1;9.2;7
53698;PMS7003;39591;53.952;27.612;2022-12-07T15:49:47;10;8.3;6.2
53698;PMS7003;39591;53.952;27.612;2022-12-07T15:54:37;10.3;8.6;7.1
53698;PMS7003;39591;53.952;27.612;2022-12-07T15:59:37;11.7;8.9;7.3
53698;PMS7003;39591;53.952;27.612;2022-12-07T16:04:47;11.4;8;6.6
53698;PMS7003;39591;53.952;27.612;2022-12-07T16:09:13;11;8.8;6.1
53698;PMS7003;39591;53.952;27.612;2022-12-07T16:14:55;11.5;8.9;6.8
53698;PMS7003;39591;53.952;27.612;2022-12-07T16:19:45;10.6;7.1;5.3
53698;PMS7003;39591;53.952;27.612;2022-12-07T16:24:49;9.6;6.3;4.3
53698;PMS7003;39591;53.952;27.612;2022-12-07T16:29:33;12.4;10.3;7.9
53698;PMS7003;39591;53.952;27.612;2022-12-07T16:34:24;11.7;8.6;6.8
53698;PMS7003;39591;53.952;27.612;2022-12-07T16:39:23;10.2;7.8;6.1
53698;PMS7003;39591;53.952;27.612;2022-12-07T16:44:53;10.6;8.8;6.8
53698;PMS7003;39591;53.952;27.612;2022-12-07T16:49:13;10.1;7.7;6.4
53698;PMS7003;39591;53.952;27.612;2022-12-07T16:54:59;9.5;7.4;6.3
53698;PMS7003;39591;53.952;27.612;2022-12-07T16:59:25;11.7;8.9;7.1
53698;PMS7003;39591;53.952;27.612;2022-12-07T17:04:43;11.7;9.1;7.3
53698;PMS7003;39591;53.952;27.612;2022-12-07T17:09:23;10.1;9;6.6
53698;PMS7003;39591;53.952;27.612;2022-12-07T17:14:57;12.4;9.8;7.6
53698;PMS7003;39591;53.952;27.612;2022-12-07T17:19:57;10.5;8.2;6.1
53698;PMS7003;39591;53.952;27.612;2022-12-07T17:24:14;7.8;5.9;4.8
53698;PMS7003;39591;53.952;27.612;2022-12-07T17:29:57;11.9;9.7;7.4
53698;PMS7003;39591;53.952;27.612;2022-12-07T17:34:55;12.7;9;6.7
53698;PMS7003;39591;53.952;27.612;2022-12-07T17:39:49;11.4;8.7;6.3
53698;PMS7003;39591;53.952;27.612;2022-12-07T17:44:31;11.3;9.1;6.8
53698;PMS7003;39591;53.952;27.612;2022-12-07T17:49:23;12.4;10.4;8.1
53698;PMS7003;39591;53.952;27.612;2022-12-07T17:54:25;13.3;9.9;7.5
53698;PMS7003;39591;53.952;27.612;2022-12-07T17:59:55;14.7;12.2;9.2
53698;PMS7003;39591;53.952;27.612;2022-12-07T18:04:25;14.8;13;9.7
53698;PMS7003;39591;53.952;27.612;2022-12-07T18:09:57;14.5;12.3;9.5
53698;PMS7003;39591;53.952;27.612;2022-12-07T18:14:13;19.1;15.4;11.5
53698;PMS7003;39591;53.952;27.612;2022-12-07T18:19:25;17;14;9.7
53698;PMS7003;39591;53.952;27.612;2022-12-07T18:24:47;20.9;16.6;12
53698;PMS7003;39591;53.952;27.612;2022-12-07T18:29:45;18.9;14.7;11.3
53698;PMS7003;39591;53.952;27.612;2022-12-07T18:34:47;18.6;16.5;12.4
53698;PMS7003;39591;53.952;27.612;2022-12-07T18:39:13;19.4;16.3;12.3
53698;PMS7003;39591;53.952;27.612;2022-12-07T18:44:23;17.7;14.7;11.7
53698;PMS7003;39591;53.952;27.612;2022-12-07T18:49:43;23.3;19;13.6
53698;PMS7003;39591;53.952;27.612;2022-12-07T18:54:47;22.5;18.4;13.7
53698;PMS7003;39591;53.952;27.612;2022-12-07T18:59:13;20.7;16.8;12.4
53698;PMS7003;39591;53.952;27.612;2022-12-07T19:04:13;25;19.1;13.7
53698;PMS7003;39591;53.952;27.612;2022-12-07T19:09:13;23.4;18.5;12.7
53698;PMS7003;39591;53.952;27.612;2022-12-07T19:14:55;21.8;17.6;13.1
53698;PMS7003;39591;53.952;27.612;2022-12-07T19:19:49;21.9;17.7;13
53698;PMS7003;39591;53.952;27.612;2022-12-07T19:24:57;22.8;17.3;12.5
53698;PMS7003;39591;53.952;27.612;2022-12-07T19:29:13;22.9;18.7;13.5
53698;PMS7003;39591;53.952;27.612;2022-12-07T19:34:25;21.6;17;12.2
53698;PMS7003;39591;53.952;27.612;2022-12-07T19:39:23;18.1;13.6;9.6
53698;PMS7003;39591;53.952;27.612;2022-12-07T19:44:43;16.7;12.9;9.7
53698;PMS7003;39591;53.952;27.612;2022-12-07T19:49:45;10.2;7.9;6.3
53698;PMS7003;39591;53.952;27.612;2022-12-07T19:54:23;8.4;6.6;4.9
53698;PMS7003;39591;53.952;27.612;2022-12-07T19:59:13;8.2;7.1;5.6
53698;PMS7003;39591;53.952;27.612;2022-12-07T20:04:57;7.5;5.6;4.6
53698;PMS7003;39591;53.952;27.612;2022-12-07T20:09:49;8;6.4;5.2
53698;PMS7003;39591;53.952;27.612;2022-12-07T20:14:13;7.4;6;4.6
53698;PMS7003;39591;53.952;27.612;2022-12-07T20:19:13;8.3;6.9;5.5
53698;PMS7003;39591;53.952;27.612;2022-12-07T20:24:13;8.7;7.2;5.4
53698;PMS7003;39591;53.952;27.612;2022-12-07T20:29:55;11.7;8.2;6.5
53698;PMS7003;39591;53.952;27.612;2022-12-07T20:34:33;11.3;8.4;6.3
53698;PMS7003;39591;53.952;27.612;2022-12-07T20:39:57;10.6;8.8;6.9
53698;PMS7003;39591;53.952;27.612;2022-12-07T20:44:23;11.9;9.3;7.4
53698;PMS7003;39591;53.952;27.612;2022-12-07T20:49:23;13.5;10.7;8.8
53698;PMS7003;39591;53.952;27.612;2022-12-07T20:54:23;12.5;10.1;8.2
53698;PMS7003;39591;53.952;27.612;2022-12-07T20:59:43;14.6;11.5;8.7
53698;PMS7003;39591;53.952;27.612;2022-12-07T21:04:57;13.3;11;8.3
53698;PMS7003;39591;53.952;27.612;2022-12-07T21:09:25;12.2;9.9;7.2
53698;PMS7003;39591;53.952;27.612;2022-12-07T21:14:13;12.9;10.5;7.8
53698;PMS7003;39591;53.952;27.612;2022-12-07T21:19:59;12;9.6;7.6
53698;PMS7003;39591;53.952;27.612;2022-12-07T21:24:27;13.6;9.6;7.4
53698;PMS7003;39591;53.952;27.612;2022-12-07T21:29:33;12.6;10.9;8.7
53698;PMS7003;39591;53.952;27.612;2022-12-07T21:34:13;12.4;10.1;8
53698;PMS7003;39591;53.952;27.612;2022-12-07T21:39:13;13.7;11.2;8.3
53698;PMS7003;39591;53.952;27.612;2022-12-07T21:44:53;12.1;9.9;8.2
53698;PMS7003;39591;53.952;27.612;2022-12-07T21:49:31;14.3;11.2;8.6
53698;PMS7003;39591;53.952;27.612;2022-12-07T21:54:55;13.8;10.9;8.4
53698;PMS7003;39591;53.952;27.612;2022-12-07T21:59:21;13.7;10.7;8.3
53698;PMS7003;39591;53.952;27.612;2022-12-07T22:04:13;14.9;11.7;8.8
53698;PMS7003;39591;53.952;27.612;2022-12-07T22:09:19;13.8;11.6;8.9
53698;PMS7003;39591;53.952;27.612;2022-12-07T22:14:37;13.5;11.4;8.5
53698;PMS7003;39591;53.952;27.612;2022-12-07T22:19:41;13.2;11.3;8.5
53698;PMS7003;39591;53.952;27.612;2022-12-07T22:24:55;14.8;11.4;8.6
53698;PMS7003;39591;53.952;27.612;2022-12-07T22:29:13;15.6;12.8;9.7
53698;PMS7003;39591;53.952;27.612;2022-12-07T22:34:53;16.5;12.7;9.3
53698;PMS7003;39591;53.952;27.612;2022-12-07T22:39:55;15.9;13.8;10.5
53698;PMS7003;39591;53.952;27.612;2022-12-07T22:44:27;17.2;13.7;10.4
53698;PMS7003;39591;53.952;27.612;2022-12-07T22:49:35;15;12.2;9.7
53698;PMS7003;39591;53.952;27.612;2022-12-07T22:54:13;15.3;13;10
53698;PMS7003;39591;53.952;27.612;2022-12-07T22:59:53;14.5;11.7;9.1
53698;PMS7003;39591;53.952;27.612;2022-12-07T23:04:29;14.9;11.7;8.9
53698;PMS7003;39591;53.952;27.612;2022-12-07T23:09:39;14.5;11.2;8.4
53698;PMS7003;39591;53.952;27.612;2022-12-07T23:14:28;12.7;10.2;8.2
53698;PMS7003;39591;53.952;27.612;2022-12-07T23:19:13;12.5;9;6.9
53698;PMS7003;39591;53.952;27.612;2022-12-07T23:24:29;10.1;8.4;6.8
53698;PMS7003;39591;53.952;27.612;2022-12-07T23:29:39;10.1;8.3;6.8
53698;PMS7003;39591;53.952;27.612;2022-12-07T23:34:43;7.7;6.3;5.2
53698;PMS7003;39591;53.952;27.612;2022-12-07T23:39:41;9.1;6.9;5.7
53698;PMS7003;39591;53.952;27.612;2022-12-07T23:44:19;9.6;7.6;6
53698;PMS7003;39591;53.952;27.612;2022-12-07T23:49:51;7.2;6.3;5
53698;PMS7003;39591;53.952;27.612;2022-12-07T23:54:53;8.4;6.9;5.5
53698;PMS7003;39591;53.952;27.612;2022-12-07T23:59:21;6.9;5.7;4.3
